Time;durP1;ratioP1;P1;durP2;ratioP2;P2;SDS_P1;SDS_P2;PMS_P1;PMS_P2;Temp;Humidity;BMP_temperature;BMP_pressure;BME280_temperature;BME280_humidity;BME280_pressure;Samples;Min_cycle;Max_cycle;Signal;HPM_P1;HPM_P2
2024/03/09 00:00:38;;;;;;;20.55;9.73;;;5.20;99.90;;;;;;4994555;28;20034;-74
2024/03/09 00:03:08;;;;;;;19.88;10.23;;;5.20;99.90;;;;;;4976639;28;20113;-74
2024/03/09 00:05:34;;;;;;;19.90;10.15;;;5.30;99.90;;;;;;4977673;28;20089;-74
2024/03/09 00:08:04;;;;;;;17.45;9.07;;;5.30;99.90;;;;;;4994801;28;20022;-73
2024/03/09 00:10:30;;;;;;;19.88;9.35;;;5.30;99.90;;;;;;4993769;28;20034;-73
2024/03/09 00:12:57;;;;;;;25.17;11.48;;;5.30;99.90;;;;;;4994221;28;20528;-73
2024/03/09 00:15:24;;;;;;;23.92;10.98;;;5.20;99.90;;;;;;4977206;28;20030;-74
2024/03/09 00:17:57;;;;;;;23.67;9.73;;;5.20;99.90;;;;;;4994731;28;20026;-74
2024/03/09 00:20:33;;;;;;;20.60;9.90;;;4.90;99.90;;;;;;4994789;28;20023;-73
2024/03/09 00:22:59;;;;;;;18.52;9.60;;;5.20;99.90;;;;;;4993759;28;20453;-74
2024/03/09 00:25:28;;;;;;;19.70;10.55;;;5.10;99.90;;;;;;5005952;28;20033;-74
2024/03/09 00:27:55;;;;;;;21.42;11.15;;;5.10;99.90;;;;;;4986542;28;20037;-75
2024/03/09 00:30:21;;;;;;;15.70;8.70;;;5.10;99.90;;;;;;4976749;28;20054;-74
2024/03/09 00:32:55;;;;;;;20.95;9.82;;;5.10;99.90;;;;;;4993728;28;20500;-73
2024/03/09 00:35:30;;;;;;;16.40;9.40;;;5.10;99.90;;;;;;4994296;28;20023;-74
2024/03/09 00:37:57;;;;;;;19.70;11.55;;;5.10;99.90;;;;;;4976971;28;20022;-74
2024/03/09 00:40:28;;;;;;;19.92;10.60;;;5.10;99.90;;;;;;4994200;28;20418;-74
2024/03/09 00:42:55;;;;;;;21.58;9.90;;;5.10;99.90;;;;;;5011134;28;20389;-74
2024/03/09 00:45:21;;;;;;;25.98;11.55;;;5.10;99.90;;;;;;5000251;28;20022;-74
2024/03/09 00:47:47;;;;;;;22.00;10.48;;;5.10;99.90;;;;;;5010244;28;20026;-74
2024/03/09 00:50:18;;;;;;;17.92;9.80;;;5.10;99.90;;;;;;5009169;28;20058;-74
2024/03/09 00:52:44;;;;;;;22.42;11.05;;;5.10;99.90;;;;;;4993337;28;20173;-74
2024/03/09 00:55:15;;;;;;;21.20;10.80;;;5.10;99.90;;;;;;4976465;28;20030;-75
2024/03/09 00:57:45;;;;;;;20.63;10.93;;;5.10;99.90;;;;;;4993974;28;20034;-74
2024/03/09 01:00:15;;;;;;;22.90;10.18;;;5.10;99.90;;;;;;4979727;28;20033;-74
2024/03/09 01:02:47;;;;;;;23.50;9.88;;;5.10;99.90;;;;;;5016384;28;20033;-74
2024/03/09 01:05:19;;;;;;;18.25;10.18;;;5.10;99.90;;;;;;4993781;28;20374;-74
2024/03/09 01:07:45;;;;;;;23.10;11.77;;;5.00;99.90;;;;;;4992384;28;20041;-74
2024/03/09 01:10:11;;;;;;;18.80;9.23;;;5.00;99.90;;;;;;4993764;28;20120;-74
2024/03/09 01:12:37;;;;;;;19.42;10.32;;;5.00;99.90;;;;;;5008197;28;20487;-76
2024/03/09 01:15:07;;;;;;;20.52;10.50;;;5.00;99.90;;;;;;4994182;28;20022;-74
2024/03/09 01:17:35;;;;;;;25.02;11.57;;;5.00;99.90;;;;;;4993332;28;20497;-74
2024/03/09 01:20:08;;;;;;;22.77;11.02;;;4.90;99.90;;;;;;4993285;28;20503;-74
2024/03/09 01:22:35;;;;;;;19.45;10.30;;;5.00;99.90;;;;;;4993034;28;20069;-76
2024/03/09 01:25:02;;;;;;;20.00;10.90;;;5.00;99.90;;;;;;4993247;28;20022;-75
2024/03/09 01:27:28;;;;;;;22.52;9.73;;;5.00;99.90;;;;;;4993322;28;20038;-74
2024/03/09 01:29:59;;;;;;;25.35;11.25;;;5.00;99.90;;;;;;4991924;28;20090;-75
2024/03/09 01:32:25;;;;;;;24.13;11.10;;;5.00;99.90;;;;;;4975216;28;20033;-75
2024/03/09 01:34:51;;;;;;;23.70;11.13;;;5.00;99.90;;;;;;4993005;28;20515;-75
2024/03/09 01:37:20;;;;;;;21.73;10.35;;;5.00;99.90;;;;;;4992916;28;20022;-74
2024/03/09 01:39:52;;;;;;;19.75;10.15;;;5.00;99.90;;;;;;4993039;28;20358;-74
2024/03/09 01:42:21;;;;;;;18.92;10.48;;;5.10;99.90;;;;;;4992444;28;20022;-75
2024/03/09 01:44:50;;;;;;;29.50;12.02;;;5.00;99.90;;;;;;4975587;28;20030;-76
2024/03/09 01:47:22;;;;;;;22.55;11.07;;;5.00;99.90;;;;;;4993156;28;20030;-74
2024/03/09 01:49:49;;;;;;;21.15;10.55;;;5.00;99.90;;;;;;4992750;28;20022;-75
2024/03/09 01:52:16;;;;;;;17.75;10.18;;;5.00;99.90;;;;;;5014229;23;20058;-74
2024/03/09 01:54:44;;;;;;;22.65;10.55;;;5.00;99.90;;;;;;5042877;28;20026;-75
2024/03/09 01:57:13;;;;;;;22.15;11.40;;;5.10;99.90;;;;;;5020269;28;20662;-74
2024/03/09 01:59:46;;;;;;;21.52;10.93;;;5.00;99.90;;;;;;5025432;28;20039;-75
2024/03/09 02:02:13;;;;;;;22.52;11.27;;;5.10;99.90;;;;;;5033232;28;20039;-75
2024/03/09 02:04:41;;;;;;;20.38;10.20;;;5.10;99.90;;;;;;5033858;28;20032;-74
2024/03/09 02:07:07;;;;;;;19.95;9.95;;;5.10;99.90;;;;;;5033728;28;20032;-74
2024/03/09 02:09:34;;;;;;;18.63;9.65;;;5.10;99.90;;;;;;5051559;28;20025;-75
2024/03/09 02:12:06;;;;;;;22.65;10.77;;;5.10;99.90;;;;;;5050874;28;20025;-75
2024/03/09 02:14:33;;;;;;;20.52;9.73;;;5.10;99.90;;;;;;5045022;28;20097;-74
2024/03/09 02:17:02;;;;;;;16.55;9.98;;;5.10;99.90;;;;;;5014263;28;20040;-74
2024/03/09 02:19:27;;;;;;;22.50;10.68;;;5.10;99.90;;;;;;5035457;28;20394;-74
2024/03/09 02:21:54;;;;;;;16.10;9.80;;;5.10;99.90;;;;;;5035187;28;20026;-75
2024/03/09 02:24:21;;;;;;;22.88;10.05;;;5.10;99.90;;;;;;5035639;28;20022;-75
2024/03/09 02:26:47;;;;;;;22.02;10.77;;;5.10;99.90;;;;;;5017900;28;20026;-75
2024/03/09 02:29:13;;;;;;;25.50;10.25;;;5.10;99.90;;;;;;5035441;28;20097;-75
2024/03/09 02:31:39;;;;;;;20.05;10.63;;;5.10;99.90;;;;;;5035075;28;20079;-75
2024/03/09 02:34:05;;;;;;;19.92;10.20;;;5.10;99.90;;;;;;5035323;28;20026;-74
2024/03/09 02:36:32;;;;;;;19.80;10.38;;;5.10;99.90;;;;;;5041846;28;20075;-74
2024/03/09 02:39:00;;;;;;;20.13;9.63;;;5.10;99.90;;;;;;5053161;28;20037;-75
2024/03/09 02:41:26;;;;;;;19.92;10.20;;;5.10;99.90;;;;;;5046016;28;20017;-74
2024/03/09 02:43:53;;;;;;;25.33;11.07;;;5.10;99.90;;;;;;5045913;28;20428;-75
2024/03/09 02:46:21;;;;;;;19.52;10.00;;;5.10;99.90;;;;;;5035163;28;20531;-74
2024/03/09 02:48:51;;;;;;;19.65;10.30;;;5.10;99.90;;;;;;5017427;28;20060;-74
2024/03/09 02:51:17;;;;;;;23.25;10.05;;;5.10;99.90;;;;;;5016824;28;20025;-74
2024/03/09 02:53:46;;;;;;;23.95;10.45;;;5.10;99.90;;;;;;5017239;28;20488;-74
2024/03/09 02:56:17;;;;;;;21.60;11.05;;;5.10;99.90;;;;;;5035095;28;20072;-74
2024/03/09 02:58:42;;;;;;;22.63;9.75;;;5.10;99.90;;;;;;5034944;28;20025;-75
2024/03/09 03:01:10;;;;;;;20.25;11.27;;;5.10;99.90;;;;;;5016630;28;20025;-74
2024/03/09 03:03:46;;;;;;;22.52;10.25;;;5.10;99.90;;;;;;5017150;28;20021;-74
2024/03/09 03:06:18;;;;;;;25.10;11.77;;;5.10;99.90;;;;;;5035019;28;20105;-74
2024/03/09 03:09:05;;;;;;;22.10;12.85;;;5.00;99.90;;;;;;5016998;28;20045;-75
2024/03/09 03:11:32;;;;;;;;;;;5.00;99.90;;;;;;5052010;28;20557;-74
2024/03/09 03:14:01;;;;;;;23.45;10.88;;;5.00;99.90;;;;;;5036546;28;20040;-74
2024/03/09 03:16:31;;;;;;;18.67;9.75;;;5.00;99.90;;;;;;5016998;28;20075;-75
2024/03/09 03:18:58;;;;;;;25.88;11.27;;;5.00;99.90;;;;;;5034617;28;20029;-74
2024/03/09 03:21:25;;;;;;;21.60;10.77;;;5.00;99.90;;;;;;5016404;28;20033;-74
2024/03/09 03:23:53;;;;;;;19.75;10.45;;;5.00;99.90;;;;;;5034435;28;20107;-74
2024/03/09 03:26:20;;;;;;;24.63;10.95;;;5.00;99.90;;;;;;5034456;28;20380;-74
2024/03/09 03:28:50;;;;;;;25.23;12.20;;;5.10;99.90;;;;;;5034377;28;20494;-74
2024/03/09 03:31:20;;;;;;;22.70;11.75;;;5.10;99.90;;;;;;5033880;28;20113;-74
2024/03/09 03:33:47;;;;;;;25.30;11.82;;;5.00;99.90;;;;;;5034398;28;20529;-75
2024/03/09 03:36:17;;;;;;;23.15;10.48;;;5.00;99.90;;;;;;5034366;28;20515;-74
2024/03/09 03:38:44;;;;;;;19.23;10.57;;;5.00;99.90;;;;;;5034108;28;20029;-74
2024/03/09 03:41:10;;;;;;;25.75;12.05;;;5.00;99.90;;;;;;5033725;28;20021;-74
2024/03/09 03:43:37;;;;;;;25.30;12.05;;;5.00;99.90;;;;;;5034261;28;20036;-74
2024/03/09 03:46:05;;;;;;;23.30;11.27;;;4.90;99.90;;;;;;5034275;28;20543;-75
2024/03/09 03:48:31;;;;;;;21.73;11.80;;;4.90;99.90;;;;;;5033852;28;20080;-75
2024/03/09 03:50:57;;;;;;;24.30;11.27;;;4.80;99.90;;;;;;5033943;28;20530;-74
2024/03/09 03:53:23;;;;;;;21.08;11.10;;;4.80;99.90;;;;;;5033264;28;20121;-74
2024/03/09 03:55:49;;;;;;;21.67;10.82;;;4.80;99.90;;;;;;5033958;28;20104;-74
2024/03/09 03:58:17;;;;;;;18.48;10.35;;;4.80;99.90;;;;;;5033986;28;20448;-74
2024/03/09 04:00:50;;;;;;;22.38;11.88;;;4.80;99.90;;;;;;5016154;28;20028;-74
2024/03/09 04:03:16;;;;;;;16.67;10.27;;;4.80;99.90;;;;;;5020981;28;20079;-75
2024/03/09 04:05:45;;;;;;;23.63;11.57;;;4.80;99.90;;;;;;5049463;28;20021;-75
2024/03/09 04:08:11;;;;;;;20.13;10.52;;;4.80;99.90;;;;;;5053816;28;20515;-75
2024/03/09 04:10:37;;;;;;;22.55;11.38;;;4.80;99.90;;;;;;5053667;28;20024;-75
2024/03/09 04:13:05;;;;;;;26.58;11.88;;;4.90;99.90;;;;;;5035228;28;20510;-74
2024/03/09 04:15:31;;;;;;;18.70;9.80;;;4.90;99.90;;;;;;5053629;28;20029;-74
2024/03/09 04:17:57;;;;;;;20.40;10.18;;;4.80;99.90;;;;;;5053481;28;20025;-75
2024/03/09 04:20:24;;;;;;;21.13;11.30;;;4.90;99.90;;;;;;5035448;28;20070;-75
2024/03/09 04:22:51;;;;;;;22.05;10.20;;;4.90;99.90;;;;;;5052820;28;20493;-74
2024/03/09 04:25:16;;;;;;;24.73;10.63;;;4.90;99.90;;;;;;5035507;28;20024;-74
2024/03/09 04:27:43;;;;;;;21.42;11.35;;;4.80;99.90;;;;;;5053341;28;20155;-74
2024/03/09 04:30:11;;;;;;;21.00;10.60;;;4.80;99.90;;;;;;5035323;28;20033;-74
2024/03/09 04:32:38;;;;;;;22.10;10.05;;;4.70;99.90;;;;;;5052536;28;20025;-75
2024/03/09 04:35:06;;;;;;;22.10;11.10;;;4.80;99.90;;;;;;5053186;28;20025;-74
2024/03/09 04:37:34;;;;;;;17.20;9.07;;;4.80;99.90;;;;;;5035207;28;20083;-74
2024/03/09 04:40:01;;;;;;;20.50;11.13;;;4.70;99.90;;;;;;5034585;28;20024;-74
2024/03/09 04:42:28;;;;;;;24.30;11.02;;;4.70;99.90;;;;;;5052518;28;20551;-75
2024/03/09 04:44:54;;;;;;;20.65;11.70;;;4.70;99.90;;;;;;5035130;28;20060;-74
2024/03/09 04:47:20;;;;;;;17.20;9.48;;;4.70;99.90;;;;;;5052890;28;20052;-75
2024/03/09 04:49:49;;;;;;;20.98;11.70;;;4.70;99.90;;;;;;5052855;28;20036;-75
2024/03/09 04:52:15;;;;;;;26.15;12.05;;;4.70;99.90;;;;;;5034297;28;20071;-75
2024/03/09 04:54:44;;;;;;;18.90;10.85;;;4.70;99.90;;;;;;5052821;28;20032;-75
2024/03/09 04:57:17;;;;;;;19.98;10.55;;;4.70;99.90;;;;;;5052796;28;20021;-75
2024/03/09 04:59:43;;;;;;;19.73;11.05;;;4.70;99.90;;;;;;5052521;28;20587;-75
2024/03/09 05:02:10;;;;;;;21.80;11.60;;;4.70;99.90;;;;;;5034062;28;20021;-74
2024/03/09 05:04:36;;;;;;;18.35;9.45;;;4.70;99.90;;;;;;5052717;28;20529;-75
2024/03/09 05:07:05;;;;;;;24.63;11.82;;;4.70;99.90;;;;;;5052655;28;20025;-74
2024/03/09 05:09:31;;;;;;;16.58;9.75;;;4.70;99.90;;;;;;5052365;28;20074;-75
2024/03/09 05:12:00;;;;;;;20.15;10.50;;;4.80;99.90;;;;;;5051906;28;20087;-74
2024/03/09 05:14:25;;;;;;;21.35;10.77;;;4.80;99.90;;;;;;5034467;28;20075;-74
2024/03/09 05:16:51;;;;;;;24.45;11.85;;;4.70;99.90;;;;;;5052390;28;20020;-75
2024/03/09 05:19:19;;;;;;;18.63;10.43;;;4.70;99.90;;;;;;5052239;28;20471;-74
2024/03/09 05:21:46;;;;;;;22.30;11.10;;;4.80;99.90;;;;;;5033873;28;20021;-74
2024/03/09 05:24:11;;;;;;;18.15;9.60;;;4.70;99.90;;;;;;5051941;28;20048;-75
2024/03/09 05:26:37;;;;;;;18.33;11.43;;;4.70;99.90;;;;;;5052283;28;20074;-75
2024/03/09 05:29:02;;;;;;;22.23;10.43;;;4.70;99.90;;;;;;5052078;28;20536;-74
2024/03/09 05:31:30;;;;;;;19.48;10.20;;;4.70;99.90;;;;;;5033845;28;20435;-75
2024/03/09 05:33:56;;;;;;;21.52;10.50;;;4.70;99.90;;;;;;5029387;28;20087;-75
2024/03/09 05:36:22;;;;;;;17.15;10.57;;;4.80;99.90;;;;;;5027733;28;20021;-75
2024/03/09 05:38:49;;;;;;;19.40;10.30;;;4.80;99.90;;;;;;5032870;28;20036;-75
2024/03/09 05:41:16;;;;;;;22.80;10.35;;;4.80;99.90;;;;;;5050752;28;20430;-75
2024/03/09 05:43:51;;;;;;;18.33;10.48;;;5.40;99.90;;;;;;5039374;28;20021;-75
2024/03/09 05:46:17;;;;;;;18.77;10.20;;;5.30;99.90;;;;;;5037428;28;20028;-76
2024/03/09 05:48:46;;;;;;;19.75;11.07;;;5.20;99.90;;;;;;5035950;28;20021;-76
2024/03/09 05:51:14;;;;;;;16.63;9.65;;;5.10;99.90;;;;;;5018068;28;20030;-76
2024/03/09 05:53:43;;;;;;;19.92;9.80;;;5.10;99.90;;;;;;5023566;28;20032;-76
2024/03/09 05:56:12;;;;;;;17.15;9.90;;;5.10;99.90;;;;;;5026170;28;20094;-75
2024/03/09 05:58:38;;;;;;;23.33;14.13;;;5.10;99.90;;;;;;5017742;28;20555;-74
2024/03/09 06:01:04;;;;;;;20.70;11.68;;;5.00;99.90;;;;;;5031506;28;20025;-74
2024/03/09 06:03:30;;;;;;;21.23;10.32;;;4.90;99.90;;;;;;5053516;28;20506;-74
2024/03/09 06:05:56;;;;;;;16.23;9.35;;;4.90;99.90;;;;;;5055911;28;20070;-73
2024/03/09 06:08:22;;;;;;;21.00;11.50;;;5.00;99.90;;;;;;5036929;28;20076;-74
2024/03/09 06:10:49;;;;;;;21.05;10.70;;;5.00;99.90;;;;;;5021439;28;20458;-74
2024/03/09 06:13:18;;;;;;;25.08;10.35;;;5.00;99.90;;;;;;5046740;28;20024;-74
2024/03/09 06:15:47;;;;;;;18.02;9.98;;;5.00;99.90;;;;;;5037709;28;20025;-74
2024/03/09 06:18:19;;;;;;;16.60;10.90;;;5.00;99.90;;;;;;5055280;28;20549;-76
2024/03/09 06:20:45;;;;;;;18.45;8.80;;;5.00;99.90;;;;;;5035657;28;20083;-74
2024/03/09 06:23:14;;;;;;;20.08;10.35;;;5.00;99.90;;;;;;5054299;28;20020;-74
2024/03/09 06:25:40;;;;;;;19.55;11.10;;;5.00;99.90;;;;;;5034493;28;20025;-73
2024/03/09 06:28:14;;;;;;;18.20;10.82;;;5.10;99.90;;;;;;5033641;28;20024;-73
2024/03/09 06:30:40;;;;;;;21.67;11.73;;;5.00;99.90;;;;;;5051214;28;20025;-75
2024/03/09 06:33:06;;;;;;;21.08;11.52;;;4.90;99.90;;;;;;5051281;28;20096;-76
2024/03/09 06:35:32;;;;;;;21.38;11.60;;;5.00;99.90;;;;;;5051365;28;20110;-75
2024/03/09 06:38:00;;;;;;;18.73;10.50;;;4.90;99.90;;;;;;5033468;28;20488;-74
2024/03/09 06:40:34;;;;;;;21.60;10.82;;;4.90;99.90;;;;;;5033796;28;20086;-75
2024/03/09 06:43:18;;;;;;;19.02;9.35;;;5.00;99.90;;;;;;5042439;28;20098;-76
2024/03/09 06:45:48;;;;;;;22.65;12.75;;;5.00;99.90;;;;;;5052090;28;20013;-77
2024/03/09 06:48:17;;;;;;;18.55;10.63;;;5.00;99.90;;;;;;5033251;28;20051;-76
2024/03/09 06:50:45;;;;;;;18.67;10.80;;;5.00;99.90;;;;;;5051296;28;20028;-76
2024/03/09 06:53:11;;;;;;;23.17;12.50;;;5.10;99.90;;;;;;5050550;28;20091;-77
2024/03/09 06:55:37;;;;;;;20.50;11.10;;;5.00;99.90;;;;;;5051439;28;20426;-76
2024/03/09 06:58:02;;;;;;;22.92;11.18;;;5.00;99.90;;;;;;5033461;28;20434;-74
2024/03/09 07:00:29;;;;;;;21.35;11.13;;;5.10;99.90;;;;;;5030043;28;20063;-74
2024/03/09 07:02:58;;;;;;;20.30;10.25;;;5.10;99.90;;;;;;5026333;28;20033;-75
2024/03/09 07:05:28;;;;;;;20.65;10.88;;;5.20;99.90;;;;;;5032384;28;20029;-77
2024/03/09 07:07:55;;;;;;;20.80;11.48;;;5.10;99.90;;;;;;5017181;28;20025;-74
2024/03/09 07:10:21;;;;;;;21.92;10.60;;;5.10;99.90;;;;;;5042469;28;20025;-74
2024/03/09 07:12:47;;;;;;;21.02;10.57;;;5.20;99.90;;;;;;5028587;28;20021;-75
2024/03/09 07:15:16;;;;;;;20.25;11.07;;;5.20;99.90;;;;;;5034700;28;20033;-74
2024/03/09 07:17:51;;;;;;;22.42;11.38;;;5.20;99.90;;;;;;5035019;28;20439;-77
2024/03/09 07:20:18;;;;;;;17.83;10.90;;;5.30;99.90;;;;;;5016987;28;20534;-75
2024/03/09 07:22:50;;;;;;;20.27;10.18;;;5.30;99.90;;;;;;5041693;28;20041;-77
2024/03/09 07:25:23;;;;;;;19.33;10.88;;;5.30;99.90;;;;;;5028527;28;20060;-75
2024/03/09 07:27:49;;;;;;;18.20;9.55;;;5.30;99.90;;;;;;5036630;28;20285;-77
2024/03/09 07:30:15;;;;;;;20.73;9.63;;;5.40;99.90;;;;;;5054422;28;20017;-77
2024/03/09 07:32:49;;;;;;;24.05;10.88;;;5.50;99.90;;;;;;5036029;28;20025;-77
2024/03/09 07:35:15;;;;;;;20.52;11.77;;;5.40;99.90;;;;;;5054531;28;20025;-78
2024/03/09 07:37:42;;;;;;;23.35;11.23;;;5.50;99.90;;;;;;5054300;28;20438;-77
2024/03/09 07:40:12;;;;;;;24.23;11.15;;;5.60;99.90;;;;;;5054190;28;20045;-76
2024/03/09 07:42:38;;;;;;;21.35;11.05;;;5.70;99.90;;;;;;5047039;28;20033;-77
2024/03/09 07:45:13;;;;;;;21.13;9.93;;;5.70;99.90;;;;;;5016465;28;20056;-76
2024/03/09 07:47:41;;;;;;;26.83;12.47;;;5.60;99.90;;;;;;5032518;28;20721;-76
2024/03/09 07:50:14;;;;;;;22.13;11.05;;;5.70;99.90;;;;;;5034002;28;20312;-76
2024/03/09 07:52:48;;;;;;;19.77;10.45;;;5.70;99.90;;;;;;5066327;22;20495;-75
2024/03/09 07:55:17;;;;;;;21.17;10.32;;;5.70;99.90;;;;;;5032005;28;20034;-75
2024/03/09 07:57:47;;;;;;;25.88;11.85;;;5.60;99.90;;;;;;5026054;28;20064;-75
2024/03/09 08:00:17;;;;;;;24.40;11.68;;;5.60;99.90;;;;;;5032688;28;20022;-77
2024/03/09 08:02:44;;;;;;;22.95;11.77;;;5.70;99.90;;;;;;5029667;28;20414;-75
2024/03/09 08:05:14;;;;;;;21.80;11.50;;;5.70;99.90;;;;;;5030474;28;20597;-73
2024/03/09 08:07:40;;;;;;;21.65;11.50;;;5.60;99.90;;;;;;5013188;28;20040;-76
2024/03/09 08:10:06;;;;;;;19.30;10.00;;;5.60;99.90;;;;;;5008476;28;20025;-74
2024/03/09 08:12:36;;;;;;;21.02;10.90;;;5.70;99.90;;;;;;5035537;28;20391;-78
2024/03/09 08:15:04;;;;;;;18.85;10.18;;;5.70;99.90;;;;;;5015710;28;20050;-74
2024/03/09 08:17:31;;;;;;;20.27;10.63;;;5.70;99.90;;;;;;5025164;28;20099;-75
2024/03/09 08:19:59;;;;;;;22.50;10.55;;;5.70;99.90;;;;;;5033366;28;20026;-74
2024/03/09 08:22:25;;;;;;;23.13;11.95;;;5.70;99.90;;;;;;5015255;28;20026;-74
2024/03/09 08:24:51;;;;;;;19.80;12.10;;;5.80;99.90;;;;;;5033417;28;20029;-73
2024/03/09 08:27:17;;;;;;;21.52;12.05;;;5.90;99.90;;;;;;5033464;28;20043;-73
2024/03/09 08:29:44;;;;;;;23.20;10.95;;;5.90;99.90;;;;;;5030533;28;20488;-74
2024/03/09 08:32:10;;;;;;;17.67;9.25;;;6.00;99.90;;;;;;5029371;28;20500;-73
2024/03/09 08:34:36;;;;;;;21.40;10.50;;;5.90;99.90;;;;;;5025068;28;20087;-74
2024/03/09 08:37:15;;;;;;;24.45;11.68;;;5.90;99.90;;;;;;5013944;28;20571;-73
2024/03/09 08:39:40;;;;;;;26.00;12.80;;;5.90;99.90;;;;;;5029491;28;20021;-73
2024/03/09 08:42:06;;;;;;;17.63;10.57;;;6.00;99.90;;;;;;5002347;28;20515;-75
2024/03/09 08:44:35;;;;;;;21.98;11.48;;;6.00;99.90;;;;;;5015207;28;20018;-75
2024/03/09 08:47:03;;;;;;;21.20;11.85;;;6.20;99.90;;;;;;5024963;28;20116;-72
2024/03/09 08:49:29;;;;;;;25.35;12.90;;;6.20;99.90;;;;;;5026514;28;20044;-74
2024/03/09 08:51:55;;;;;;;22.75;11.43;;;6.20;99.90;;;;;;5032323;28;20036;-74
2024/03/09 08:54:21;;;;;;;20.27;10.50;;;6.30;99.90;;;;;;5013279;28;20038;-72
2024/03/09 08:56:47;;;;;;;24.25;12.40;;;6.30;99.90;;;;;;4996144;28;20030;-73
2024/03/09 08:59:13;;;;;;;19.35;10.07;;;6.40;99.90;;;;;;5016144;28;20079;-78
2024/03/09 09:01:38;;;;;;;25.42;12.32;;;6.40;99.90;;;;;;5016112;28;20021;-77
2024/03/09 09:04:04;;;;;;;22.98;10.88;;;6.50;99.90;;;;;;5032792;28;20030;-76
2024/03/09 09:06:30;;;;;;;24.65;12.25;;;6.60;99.90;;;;;;5032958;28;20024;-76
2024/03/09 09:09:00;;;;;;;19.85;10.55;;;6.70;99.90;;;;;;5032905;28;20035;-75
2024/03/09 09:11:28;;;;;;;22.90;12.50;;;6.70;99.90;;;;;;5014551;28;20021;-75
2024/03/09 09:13:54;;;;;;;22.08;11.77;;;6.70;99.90;;;;;;5015013;28;20034;-77
2024/03/09 09:16:20;;;;;;;22.95;12.52;;;6.70;99.90;;;;;;5014129;28;20437;-75
2024/03/09 09:18:45;;;;;;;21.35;11.20;;;6.80;99.90;;;;;;5032695;28;20029;-76
2024/03/09 09:21:11;;;;;;;24.10;12.82;;;6.70;99.90;;;;;;5014853;28;20029;-76
2024/03/09 09:23:37;;;;;;;21.45;11.40;;;6.80;99.90;;;;;;5014905;28;20117;-76
2024/03/09 09:26:02;;;;;;;20.98;11.98;;;6.80;99.90;;;;;;5032505;28;20048;-75
2024/03/09 09:28:28;;;;;;;24.02;13.30;;;6.90;99.90;;;;;;5032493;28;20032;-75
2024/03/09 09:30:54;;;;;;;24.33;12.52;;;7.00;99.90;;;;;;5014253;28;20028;-76
2024/03/09 09:33:21;;;;;;;22.30;12.20;;;7.10;99.90;;;;;;5026879;28;20048;-75
2024/03/09 09:35:47;;;;;;;28.23;14.40;;;7.30;99.90;;;;;;5027383;28;20326;-74
2024/03/09 09:38:17;;;;;;;23.05;13.05;;;7.30;99.90;;;;;;5027918;28;20034;-75
2024/03/09 09:40:48;;;;;;;23.35;12.45;;;7.30;99.90;;;;;;5023864;28;20033;-76
2024/03/09 09:43:15;;;;;;;19.83;11.43;;;7.20;99.90;;;;;;5021131;28;20021;-76
2024/03/09 09:45:44;;;;;;;19.60;12.63;;;7.10;99.90;;;;;;5026920;28;20056;-75
2024/03/09 09:48:11;;;;;;;24.38;12.55;;;7.20;99.90;;;;;;5030742;28;20022;-76
2024/03/09 09:50:36;;;;;;;24.48;12.45;;;7.30;99.90;;;;;;5018314;28;20034;-76
2024/03/09 09:53:07;;;;;;;26.55;12.75;;;7.30;99.90;;;;;;5011607;28;20172;-76
2024/03/09 09:55:35;;;;;;;27.70;12.85;;;7.30;99.90;;;;;;5023831;28;20013;-75
2024/03/09 09:58:01;;;;;;;22.00;12.13;;;7.20;99.90;;;;;;5023805;28;20642;-77
2024/03/09 10:00:27;;;;;;;27.35;13.13;;;7.30;99.90;;;;;;5014520;28;20029;-76
2024/03/09 10:02:58;;;;;;;27.75;14.05;;;7.20;99.90;;;;;;5031820;28;20032;-76
2024/03/09 10:05:28;;;;;;;24.55;13.25;;;7.20;99.90;;;;;;5031940;28;20143;-76
2024/03/09 10:08:06;;;;;;;21.25;11.98;;;7.30;99.90;;;;;;5014253;28;20032;-75
2024/03/09 10:10:35;;;;;;;26.30;14.43;;;7.20;99.90;;;;;;5014044;28;20167;-76
2024/03/09 10:13:04;;;;;;;23.95;12.65;;;7.30;99.90;;;;;;5002336;28;20022;-75
2024/03/09 10:15:30;;;;;;;26.17;15.40;;;7.40;99.90;;;;;;5031950;28;20103;-76
2024/03/09 10:17:56;;;;;;;23.52;13.68;;;7.40;99.90;;;;;;5031399;28;20053;-76
2024/03/09 10:20:21;;;;;;;23.23;12.93;;;7.40;99.90;;;;;;5033089;28;20090;-78
2024/03/09 10:22:47;;;;;;;25.55;14.18;;;7.50;99.90;;;;;;5013457;28;20025;-77
2024/03/09 10:25:25;;;;;;;18.25;11.75;;;7.40;99.90;;;;;;5031753;28;20013;-77
2024/03/09 10:27:54;;;;;;;24.27;11.73;;;7.30;99.90;;;;;;5031846;28;20021;-76
2024/03/09 10:30:20;;;;;;;21.92;12.88;;;7.30;99.90;;;;;;5012999;28;20032;-77
2024/03/09 10:32:46;;;;;;;26.80;12.70;;;7.40;99.90;;;;;;5023224;28;20018;-77
2024/03/09 10:35:11;;;;;;;32.03;15.35;;;7.40;99.90;;;;;;5027927;28;20031;-76
2024/03/09 10:37:41;;;;;;;26.92;15.15;;;7.40;99.90;;;;;;5008101;28;20064;-77
2024/03/09 10:40:12;;;;;;;26.02;16.27;;;7.40;99.90;;;;;;5032979;28;20132;-77
2024/03/09 10:42:43;;;;;;;24.05;13.95;;;7.40;99.90;;;;;;5002930;28;20032;-77
2024/03/09 10:45:12;;;;;;;24.42;12.73;;;7.60;99.90;;;;;;5034895;28;20422;-76
2024/03/09 10:47:47;;;;;;;21.15;12.73;;;7.70;99.90;;;;;;5010286;28;20076;-76
2024/03/09 10:50:43;;;;;;;23.92;13.38;;;7.70;99.90;;;;;;5008219;28;20021;-76
2024/03/09 10:53:09;;;;;;;;;;;7.90;99.90;;;;;;5028144;28;20519;-76
2024/03/09 10:55:48;;;;;;;26.88;11.35;;;7.90;99.90;;;;;;5023830;28;19909;-76
2024/03/09 10:58:17;;;;;;;23.42;12.52;;;8.00;99.90;;;;;;5034400;28;20694;-76
2024/03/09 11:00:49;;;;;;;26.42;13.98;;;8.10;99.90;;;;;;5022211;28;20032;-77
2024/03/09 11:03:20;;;;;;;28.17;13.93;;;8.10;99.90;;;;;;5008402;28;20021;-78
2024/03/09 11:05:46;;;;;;;24.92;13.80;;;8.30;99.90;;;;;;5011527;28;20014;-76
2024/03/09 11:08:13;;;;;;;28.33;13.85;;;8.50;99.90;;;;;;5026808;28;20022;-76
2024/03/09 11:10:41;;;;;;;24.75;13.35;;;8.70;99.90;;;;;;5035538;28;20396;-74
2024/03/09 11:13:08;;;;;;;27.42;14.75;;;8.80;99.90;;;;;;5032697;28;20032;-75
2024/03/09 11:15:37;;;;;;;25.35;14.52;;;8.90;99.90;;;;;;5029192;28;20080;-76
2024/03/09 11:18:07;;;;;;;26.38;15.73;;;9.10;99.90;;;;;;5031402;28;20025;-76
2024/03/09 11:20:33;;;;;;;27.60;14.98;;;9.10;99.90;;;;;;5016810;28;20025;-75
2024/03/09 11:22:58;;;;;;;26.65;15.07;;;9.30;99.90;;;;;;5009953;28;20593;-76
2024/03/09 11:25:50;;;;;;;28.52;16.02;;;9.30;99.90;;;;;;5008821;28;20017;-77
2024/03/09 11:28:16;;;;;;;27.92;16.05;;;9.40;99.90;;;;;;5026986;28;20472;-76
2024/03/09 11:31:14;;;;;;;29.17;16.38;;;9.50;99.90;;;;;;5026708;28;20075;-76
2024/03/09 11:33:46;;;;;;;25.27;15.30;;;9.70;99.90;;;;;;5029622;28;20495;-75
2024/03/09 11:36:53;;;;;;;26.88;15.60;;;9.90;99.90;;;;;;5014035;28;20041;-76
2024/03/09 11:39:22;;;;;;;29.60;16.33;;;10.20;99.90;;;;;;5026720;28;20040;-75
2024/03/09 11:41:54;;;;;;;25.98;14.77;;;10.40;99.90;;;;;;5009513;28;20029;-76
2024/03/09 11:44:23;;;;;;;28.67;16.95;;;10.50;99.90;;;;;;5015123;28;20022;-76
2024/03/09 11:46:49;;;;;;;23.42;14.15;;;10.40;99.90;;;;;;5021002;28;20025;-76
2024/03/09 11:49:16;;;;;;;25.38;15.38;;;10.30;99.90;;;;;;5025919;28;20017;-76
2024/03/09 11:51:42;;;;;;;27.08;14.60;;;10.40;99.90;;;;;;5033378;28;20490;-75
2024/03/09 11:54:13;;;;;;;24.77;13.95;;;10.40;99.90;;;;;;5016915;28;20037;-76
2024/03/09 11:56:40;;;;;;;30.23;14.40;;;10.30;99.90;;;;;;5034689;28;20152;-76
2024/03/09 11:59:07;;;;;;;23.58;14.35;;;10.20;99.90;;;;;;5025917;28;20029;-75
2024/03/09 12:01:36;;;;;;;26.10;14.45;;;10.10;99.90;;;;;;5023122;28;20022;-75
2024/03/09 12:04:04;;;;;;;23.13;13.55;;;10.00;99.90;;;;;;5027783;28;20022;-77
2024/03/09 12:06:30;;;;;;;27.27;15.02;;;10.10;99.90;;;;;;5031921;28;20108;-76
2024/03/09 12:08:56;;;;;;;23.58;13.23;;;9.90;99.90;;;;;;5028525;28;20026;-76
2024/03/09 12:11:22;;;;;;;23.20;14.05;;;9.60;99.90;;;;;;5027252;28;20033;-77
2024/03/09 12:13:49;;;;;;;31.73;19.65;;;9.60;99.90;;;;;;5012355;28;20029;-77
2024/03/09 12:16:16;;;;;;;26.23;16.15;;;9.70;99.90;;;;;;5027955;28;20483;-76
2024/03/09 12:18:48;;;;;;;28.33;17.77;;;9.70;99.90;;;;;;5028138;28;20018;-75
2024/03/09 12:21:15;;;;;;;27.63;15.43;;;9.60;99.90;;;;;;5033983;28;20029;-75
2024/03/09 12:23:41;;;;;;;22.73;13.30;;;9.30;99.90;;;;;;5034461;28;20087;-76
2024/03/09 12:26:09;;;;;;;26.20;15.35;;;9.20;99.90;;;;;;5037701;28;20026;-77
2024/03/09 12:28:35;;;;;;;25.63;15.10;;;9.10;99.90;;;;;;5019240;28;20033;-75
2024/03/09 12:31:01;;;;;;;28.58;15.80;;;9.20;99.90;;;;;;5029881;28;20100;-74
2024/03/09 12:33:27;;;;;;;23.33;13.00;;;9.30;99.90;;;;;;5019729;28;20500;-75
2024/03/09 12:35:59;;;;;;;25.45;14.25;;;9.30;99.90;;;;;;5017335;28;20037;-75
2024/03/09 12:38:25;;;;;;;33.10;17.20;;;9.30;99.90;;;;;;5022170;28;20122;-75
2024/03/09 12:40:53;;;;;;;25.23;13.30;;;9.30;99.90;;;;;;5011357;28;20080;-75
2024/03/09 12:43:19;;;;;;;26.30;15.30;;;9.30;99.90;;;;;;5029997;28;20101;-75